Time;durP1;ratioP1;P1;durP2;ratioP2;P2;SDS_P1;SDS_P2;PMS_P1;PMS_P2;Temp;Humidity;BMP_temperature;BMP_pressure;BME280_temperature;BME280_humidity;BME280_pressure;Samples;Min_cycle;Max_cycle;Signal;HPM_P1;HPM_P2
2023/01/17 00:01:41;;;;;;;2.53;1.80;;;3.80;99.90;;;;;;5056171;28;20049;-88
2023/01/17 00:09:53;;;;;;;1.13;1.05;;;3.30;99.90;;;;;;5071939;28;20059;-87
2023/01/17 00:12:24;;;;;;;7.70;1.33;;;3.40;99.90;;;;;;5072470;28;20052;-88
2023/01/17 00:14:52;;;;;;;1.65;1.25;;;3.40;99.90;;;;;;5072415;28;20044;-89
2023/01/17 00:17:18;;;;;;;2.75;1.25;;;3.80;99.90;;;;;;5072512;28;20045;-89
2023/01/17 01:34:34;;;;;;;5.95;0.98;;;3.90;99.90;;;;;;5071279;28;20052;-87
2023/01/17 01:37:00;;;;;;;0.75;0.40;;;3.10;99.90;;;;;;5071029;28;20040;-88
2023/01/17 01:39:26;;;;;;;2.35;0.50;;;3.00;99.90;;;;;;5071329;28;20055;-87
2023/01/17 01:41:52;;;;;;;0.47;0.40;;;3.00;99.90;;;;;;5071367;28;20041;-87
2023/01/17 01:44:50;;;;;;;3.00;0.40;;;3.30;99.90;;;;;;5071149;28;20680;-87
2023/01/17 01:47:32;;;;;;;1.65;0.47;;;2.80;99.90;;;;;;5070812;28;20098;-88
2023/01/17 01:50:00;;;;;;;0.65;0.45;;;3.20;99.90;;;;;;5070909;28;20049;-87
2023/01/17 01:52:29;;;;;;;5.10;0.70;;;2.70;99.90;;;;;;5071246;28;20080;-87
2023/01/17 01:54:59;;;;;;;1.25;0.95;;;2.70;99.90;;;;;;5070941;28;20444;-89
2023/01/17 01:57:31;;;;;;;0.32;0.32;;;3.10;99.90;;;;;;5071209;28;20084;-87
2023/01/17 02:00:01;;;;;;;2.53;0.80;;;3.00;99.90;;;;;;5070912;28;20057;-89
2023/01/17 02:02:29;;;;;;;1.42;0.75;;;2.60;99.90;;;;;;5071126;28;20060;-87
2023/01/17 02:04:57;;;;;;;2.53;0.85;;;2.70;99.90;;;;;;5070838;28;20494;-88
2023/01/17 02:07:30;;;;;;;3.17;0.60;;;3.00;99.90;;;;;;5070763;28;20067;-86
2023/01/17 02:09:57;;;;;;;0.85;0.52;;;2.60;99.90;;;;;;5070978;28;20101;-89
2023/01/17 02:12:23;;;;;;;5.57;0.80;;;2.60;99.90;;;;;;5071003;28;20142;-87
2023/01/17 02:14:49;;;;;;;1.55;0.68;;;3.00;99.90;;;;;;5070909;28;20128;-87
2023/01/17 02:17:30;;;;;;;1.25;0.63;;;2.60;99.90;;;;;;5053838;28;20092;-87
2023/01/17 02:20:14;;;;;;;3.80;0.82;;;2.50;99.90;;;;;;5071102;28;20067;-87
2023/01/17 02:23:05;;;;;;;5.07;0.80;;;2.50;99.90;;;;;;5070812;28;20044;-87
2023/01/17 02:25:34;;;;;;;2.08;0.63;;;2.50;99.90;;;;;;5069940;28;20494;-87
2023/01/17 02:28:38;;;;;;;1.10;0.50;;;2.60;99.90;;;;;;5070456;28;20397;-88
2023/01/17 02:31:11;;;;;;;3.00;0.40;;;2.50;99.90;;;;;;4977139;28;20089;-87
2023/01/17 02:34:18;;;;;;;1.23;0.50;;;2.70;99.90;;;;;;5059831;28;20056;-88
2023/01/17 02:37:06;;;;;;;0.32;0.32;;;2.30;99.90;;;;;;5043213;28;20068;-87
2023/01/17 02:39:39;;;;;;;3.78;0.70;;;2.30;99.90;;;;;;5053613;28;20059;-87
2023/01/17 02:42:18;;;;;;;2.85;0.60;;;2.30;99.90;;;;;;5070519;28;20114;-87
2023/01/17 02:44:44;;;;;;;1.38;0.60;;;2.20;99.90;;;;;;5070680;28;20044;-87
2023/01/17 02:47:30;;;;;;;3.53;0.77;;;2.40;99.90;;;;;;5073467;28;20051;-87
2023/01/17 02:50:01;;;;;;;4.78;0.75;;;2.70;99.90;;;;;;5074609;28;20454;-87
2023/01/17 02:52:58;;;;;;;1.48;0.47;;;2.60;99.90;;;;;;5073975;28;20067;-87
2023/01/17 02:55:54;;;;;;;5.27;0.80;;;2.10;99.90;;;;;;5057044;28;20040;-88
2023/01/17 02:58:23;;;;;;;4.57;0.70;;;2.10;99.90;;;;;;5074268;28;20052;-87
2023/01/17 03:01:08;;;;;;;4.43;0.70;;;2.10;99.90;;;;;;5074378;28;20040;-87
2023/01/17 03:04:01;;;;;;;7.97;1.13;;;2.10;99.90;;;;;;5057538;28;20062;-87
2023/01/17 03:06:49;;;;;;;5.47;0.63;;;2.10;99.90;;;;;;5057503;28;20064;-87
2023/01/17 03:09:17;;;;;;;2.10;0.70;;;2.10;99.90;;;;;;5073642;28;20052;-87
2023/01/17 03:11:43;;;;;;;3.80;0.47;;;2.60;99.90;;;;;;5074034;28;20045;-87
2023/01/17 03:14:08;;;;;;;2.08;0.70;;;2.10;99.90;;;;;;5073811;28;20067;-88
2023/01/17 03:16:34;;;;;;;0.40;0.40;;;2.70;99.90;;;;;;5057128;28;20052;-87
2023/01/17 03:19:00;;;;;;;2.17;0.82;;;2.50;99.90;;;;;;5073971;28;20040;-87
2023/01/17 03:21:26;;;;;;;2.75;0.73;;;2.10;99.90;;;;;;5073338;28;20094;-87
2023/01/17 03:23:52;;;;;;;1.33;0.57;;;2.30;99.90;;;;;;5073625;28;20051;-87
2023/01/17 03:26:17;;;;;;;2.45;0.57;;;2.20;99.90;;;;;;5073080;28;20102;-88
2023/01/17 03:28:43;;;;;;;3.88;0.73;;;2.40;99.90;;;;;;5057289;28;20477;-87
2023/01/17 03:31:13;;;;;;;5.00;1.38;;;2.20;99.90;;;;;;5073529;28;20098;-88
2023/01/17 03:33:38;;;;;;;3.83;0.77;;;2.20;99.90;;;;;;5073570;28;20041;-87
2023/01/17 03:36:04;;;;;;;5.40;0.85;;;2.60;99.90;;;;;;5056507;28;20047;-89
2023/01/17 03:38:30;;;;;;;3.00;0.85;;;2.20;99.90;;;;;;5073390;28;20036;-87
2023/01/17 03:40:56;;;;;;;0.60;0.60;;;2.20;99.90;;;;;;5073666;28;20048;-87
2023/01/17 03:43:21;;;;;;;4.63;0.80;;;2.30;99.90;;;;;;5073168;28;20045;-87
2023/01/17 03:45:53;;;;;;;4.85;0.68;;;2.40;99.90;;;;;;5073367;28;20041;-87
2023/01/17 03:48:20;;;;;;;4.68;0.55;;;2.80;99.90;;;;;;5072950;28;20048;-87
2023/01/17 03:50:50;;;;;;;0.40;0.40;;;2.20;99.90;;;;;;5073251;28;20055;-87
2023/01/17 03:53:15;;;;;;;0.70;0.45;;;2.20;99.90;;;;;;5072958;28;20052;-86
2023/01/17 03:55:43;;;;;;;2.13;0.88;;;2.40;99.90;;;;;;5056356;28;20490;-87
2023/01/17 03:58:09;;;;;;;3.08;1.15;;;2.20;99.90;;;;;;5055868;28;20063;-87
2023/01/17 04:00:35;;;;;;;1.95;0.65;;;2.10;99.90;;;;;;5056549;28;20041;-87
2023/01/17 04:03:01;;;;;;;2.20;0.68;;;2.50;99.90;;;;;;5072762;28;20087;-86
2023/01/17 04:05:27;;;;;;;1.50;0.75;;;2.10;99.90;;;;;;5072465;28;20284;-87
2023/01/17 04:07:52;;;;;;;0.60;0.60;;;2.10;99.90;;;;;;5072920;28;20052;-87
2023/01/17 04:10:18;;;;;;;3.42;0.70;;;2.10;99.90;;;;;;5072248;28;20052;-87
2023/01/17 04:12:44;;;;;;;4.90;0.80;;;2.10;99.90;;;;;;5072853;28;20074;-87
2023/01/17 04:15:10;;;;;;;4.32;0.63;;;2.40;99.90;;;;;;5072267;28;20052;-87
2023/01/17 04:17:36;;;;;;;4.95;0.82;;;2.10;99.90;;;;;;5056148;28;20045;-87
2023/01/17 04:20:02;;;;;;;10.15;1.00;;;2.10;99.90;;;;;;5072695;28;20382;-87
2023/01/17 04:22:30;;;;;;;4.22;1.00;;;2.00;99.90;;;;;;5055800;28;20079;-87
2023/01/17 04:24:56;;;;;;;2.28;0.55;;;2.00;99.90;;;;;;5071814;28;20126;-87
2023/01/17 04:27:22;;;;;;;0.50;0.50;;;2.00;99.90;;;;;;5072325;28;20057;-87
2023/01/17 04:29:48;;;;;;;1.05;0.77;;;2.00;99.90;;;;;;5072681;28;20059;-87
2023/01/17 04:32:13;;;;;;;1.65;0.60;;;2.40;99.90;;;;;;5071815;28;20048;-87
2023/01/17 04:34:39;;;;;;;1.13;0.85;;;2.50;99.90;;;;;;5055807;28;20049;-87
2023/01/17 04:37:05;;;;;;;0.95;0.60;;;2.20;99.90;;;;;;5055624;28;20183;-87
2023/01/17 04:39:30;;;;;;;1.80;0.70;;;1.80;99.90;;;;;;5071565;28;20047;-87
2023/01/17 04:41:56;;;;;;;1.58;0.82;;;2.20;99.90;;;;;;5072364;28;20055;-87
2023/01/17 04:44:22;;;;;;;2.47;0.95;;;1.80;99.90;;;;;;5071943;28;20044;-86
2023/01/17 04:46:47;;;;;;;3.08;0.98;;;1.70;99.90;;;;;;5071979;28;20390;-87
2023/01/17 04:49:13;;;;;;;2.92;0.77;;;1.70;99.90;;;;;;5071928;28;20044;-87
2023/01/17 04:51:39;;;;;;;2.05;0.88;;;1.60;99.90;;;;;;5071820;28;20041;-87
2023/01/17 04:54:04;;;;;;;3.33;0.65;;;1.60;99.90;;;;;;5055334;28;20044;-87
2023/01/17 04:56:30;;;;;;;5.05;0.95;;;1.50;99.90;;;;;;5071589;28;20485;-86
2023/01/17 04:58:57;;;;;;;0.70;0.52;;;1.50;99.90;;;;;;5071925;28;20265;-87
2023/01/17 05:01:22;;;;;;;5.00;0.90;;;1.40;99.90;;;;;;5071410;28;20535;-87
2023/01/17 05:03:48;;;;;;;1.27;0.77;;;1.50;99.90;;;;;;5055229;28;20135;-86
2023/01/17 05:06:14;;;;;;;6.05;0.77;;;1.80;99.90;;;;;;5054769;28;20048;-88
2023/01/17 05:08:40;;;;;;;6.60;0.90;;;1.40;99.90;;;;;;5071071;28;20131;-88
2023/01/17 05:11:05;;;;;;;1.45;0.80;;;1.50;99.90;;;;;;5071814;28;20401;-87
2023/01/17 05:13:31;;;;;;;4.80;0.88;;;1.40;99.90;;;;;;5071491;28;20048;-87
2023/01/17 05:15:57;;;;;;;1.98;1.02;;;1.30;99.90;;;;;;5055252;28;20075;-87
2023/01/17 05:18:23;;;;;;;;;;;1.20;99.90;;;;;;5071595;28;20046;-86
2023/01/17 05:20:49;;;;;;;3.40;0.82;;;1.20;99.90;;;;;;5071424;28;19920;-86
2023/01/17 05:23:15;;;;;;;5.53;0.80;;;1.20;99.90;;;;;;5070891;28;20044;-90
2023/01/17 05:25:43;;;;;;;6.85;1.20;;;1.10;99.90;;;;;;5070488;28;20139;-86
2023/01/17 05:28:10;;;;;;;7.68;1.33;;;1.20;99.90;;;;;;5071433;28;20131;-86
2023/01/17 05:30:36;;;;;;;6.10;0.85;;;1.50;99.90;;;;;;5054423;28;20098;-86
2023/01/17 05:33:02;;;;;;;6.10;1.05;;;1.00;99.90;;;;;;5071412;28;20080;-86
2023/01/17 05:35:33;;;;;;;6.53;0.90;;;1.00;99.90;;;;;;5071135;28;20095;-87
2023/01/17 05:37:59;;;;;;;4.88;1.10;;;1.00;99.90;;;;;;5071369;28;20049;-87
2023/01/17 05:40:27;;;;;;;6.07;0.80;;;1.00;99.90;;;;;;5070931;28;20110;-86
2023/01/17 05:42:55;;;;;;;6.15;1.42;;;0.90;99.90;;;;;;5071335;28;20135;-87
2023/01/17 05:45:23;;;;;;;6.07;0.73;;;0.90;99.90;;;;;;5054157;28;20093;-87
2023/01/17 05:47:51;;;;;;;4.90;0.80;;;0.90;99.90;;;;;;5071282;28;20057;-87
2023/01/17 05:50:22;;;;;;;3.42;1.23;;;1.20;99.90;;;;;;5071059;28;20509;-89
2023/01/17 05:52:54;;;;;;;3.88;1.00;;;0.90;99.90;;;;;;5071279;28;20070;-86
2023/01/17 05:55:21;;;;;;;7.85;0.98;;;0.90;99.90;;;;;;5070420;28;20114;-86
2023/01/17 05:57:46;;;;;;;5.45;1.08;;;0.80;99.90;;;;;;5054289;28;20055;-86
2023/01/17 06:00:13;;;;;;;1.08;0.65;;;0.80;99.90;;;;;;5054322;28;20390;-88
2023/01/17 06:02:38;;;;;;;2.65;0.75;;;0.80;99.90;;;;;;5054131;28;20086;-85
2023/01/17 06:05:05;;;;;;;8.57;1.63;;;0.70;99.90;;;;;;5054253;28;20044;-85
2023/01/17 06:07:30;;;;;;;;;;;0.70;99.90;;;;;;5071145;28;20055;-85
2023/01/17 06:09:56;;;;;;;4.82;0.77;;;0.70;99.90;;;;;;5054230;28;20014;-85
2023/01/17 06:12:22;;;;;;;3.05;0.77;;;0.70;99.90;;;;;;5070761;28;20044;-85
2023/01/17 06:14:47;;;;;;;2.58;1.30;;;0.60;99.90;;;;;;5071182;28;20450;-85
2023/01/17 06:17:13;;;;;;;4.85;1.25;;;0.60;99.90;;;;;;5054127;28;20501;-87
2023/01/17 06:19:39;;;;;;;18.83;1.17;;;1.30;99.90;;;;;;5053883;28;20466;-86
2023/01/17 06:22:04;;;;;;;4.13;0.77;;;0.60;99.90;;;;;;5074033;28;20049;-85
2023/01/17 06:24:30;;;;;;;6.22;1.40;;;0.60;99.90;;;;;;5057531;28;20040;-86
2023/01/17 06:26:56;;;;;;;2.65;0.85;;;0.60;99.90;;;;;;5057937;28;20056;-86
2023/01/17 06:29:22;;;;;;;2.13;0.70;;;0.60;99.90;;;;;;5074463;28;20048;-85
2023/01/17 06:31:48;;;;;;;3.88;0.90;;;0.60;99.90;;;;;;5074649;28;20045;-84
2023/01/17 06:34:13;;;;;;;8.25;1.20;;;0.50;99.90;;;;;;5074930;28;20048;-88
2023/01/17 06:36:39;;;;;;;4.70;0.80;;;0.70;99.90;;;;;;5057523;28;20048;-88
2023/01/17 06:39:05;;;;;;;2.75;0.82;;;0.50;99.90;;;;;;5057707;28;20053;-89
2023/01/17 06:41:30;;;;;;;2.85;1.08;;;0.60;99.90;;;;;;5074163;28;20124;-88
2023/01/17 06:43:56;;;;;;;6.05;0.88;;;0.80;99.90;;;;;;5074348;28;20145;-88
2023/01/17 06:46:22;;;;;;;4.47;0.82;;;0.50;99.90;;;;;;5057461;28;20045;-89
2023/01/17 06:48:49;;;;;;;2.20;0.85;;;0.60;99.90;;;;;;5074431;28;20185;-85
2023/01/17 06:51:15;;;;;;;4.60;0.88;;;0.50;99.90;;;;;;5074305;28;20040;-88
2023/01/17 06:53:41;;;;;;;2.33;0.90;;;0.80;99.90;;;;;;5073864;28;20056;-89
2023/01/17 06:56:07;;;;;;;5.88;1.30;;;1.00;99.90;;;;;;5073967;28;20120;-88
2023/01/17 06:58:33;;;;;;;8.07;1.33;;;0.50;99.90;;;;;;5074037;28;20390;-88
2023/01/17 07:01:06;;;;;;;;;;;0.50;99.90;;;;;;5074836;28;20041;-88
2023/01/17 07:03:32;;;;;;;6.60;0.77;;;0.50;99.90;;;;;;5073884;28;20288;-88
2023/01/17 07:06:00;;;;;;;0.60;0.60;;;0.50;99.90;;;;;;5073916;28;20040;-87
2023/01/17 07:08:27;;;;;;;3.40;0.60;;;0.60;99.90;;;;;;5073724;28;20139;-88
2023/01/17 07:10:58;;;;;;;7.03;0.90;;;1.00;99.90;;;;;;5074100;28;20048;-88
2023/01/17 07:13:24;;;;;;;2.15;0.57;;;0.60;99.90;;;;;;5073611;28;20435;-90
2023/01/17 07:15:50;;;;;;;2.55;0.73;;;0.60;99.90;;;;;;5074087;28;20052;-88
2023/01/17 07:18:22;;;;;;;4.10;0.85;;;0.60;99.90;;;;;;5056757;28;20048;-88
2023/01/17 07:20:53;;;;;;;1.85;0.52;;;0.60;99.90;;;;;;5073713;28;20131;-88
2023/01/17 07:23:21;;;;;;;2.88;0.75;;;0.70;99.90;;;;;;5073770;28;20044;-86
2023/01/17 07:25:55;;;;;;;2.63;0.70;;;0.70;99.90;;;;;;5072866;28;20064;-86
2023/01/17 07:28:21;;;;;;;4.05;0.93;;;1.10;99.90;;;;;;5073658;28;20127;-86
2023/01/17 07:30:47;;;;;;;1.95;0.60;;;0.70;99.90;;;;;;5073537;28;20132;-86
2023/01/17 07:33:12;;;;;;;1.45;0.75;;;0.70;99.90;;;;;;5056137;28;20125;-86
2023/01/17 07:35:38;;;;;;;21.58;1.77;;;1.10;99.90;;;;;;5056583;28;20043;-85
2023/01/17 07:38:04;;;;;;;;;;;0.60;99.90;;;;;;5073819;28;20074;-87
2023/01/17 07:40:31;;;;;;;6.47;1.08;;;0.80;99.90;;;;;;5072314;28;20019;-66
2023/01/17 07:43:00;;;;;;;7.00;0.88;;;0.60;99.90;;;;;;5073929;28;20051;-75
2023/01/17 07:45:26;;;;;;;2.80;0.80;;;0.70;99.90;;;;;;5073655;28;20047;-75
2023/01/17 07:47:52;;;;;;;10.23;1.20;;;1.30;99.90;;;;;;5073661;28;20044;-87
2023/01/17 07:50:17;;;;;;;11.25;1.13;;;0.80;99.90;;;;;;5039855;28;20127;-86
2023/01/17 07:52:48;;;;;;;2.08;0.80;;;0.70;99.90;;;;;;5072147;28;20044;-85
2023/01/17 07:55:14;;;;;;;3.80;0.70;;;0.70;99.90;;;;;;5072432;28;20155;-87
2023/01/17 07:57:40;;;;;;;7.43;0.93;;;0.60;99.90;;;;;;5072411;28;20131;-87
2023/01/17 08:00:06;;;;;;;1.25;0.43;;;0.50;99.90;;;;;;5072722;28;20041;-87
2023/01/17 08:02:32;;;;;;;4.43;0.70;;;0.50;99.90;;;;;;5072247;28;20048;-87
2023/01/17 08:04:58;;;;;;;1.35;0.65;;;0.50;99.90;;;;;;5072431;28;20098;-90
2023/01/17 08:07:23;;;;;;;6.00;0.98;;;0.60;99.90;;;;;;5072265;28;20128;-90
2023/01/17 08:09:49;;;;;;;8.75;1.30;;;0.50;99.90;;;;;;5072015;28;20049;-89
2023/01/17 08:12:15;;;;;;;5.72;0.93;;;1.00;99.90;;;;;;5072480;28;20072;-89
2023/01/17 08:14:41;;;;;;;;;;;0.50;99.90;;;;;;5055983;28;20040;-90
2023/01/17 08:17:13;;;;;;;1.25;0.70;;;1.20;99.90;;;;;;5072349;28;19928;-90
2023/01/17 08:19:39;;;;;;;2.42;1.17;;;0.90;99.90;;;;;;5072116;28;20049;-87
2023/01/17 08:22:05;;;;;;;;;;;0.40;99.90;;;;;;5072429;28;20507;-89
2023/01/17 08:24:31;;;;;;;1.65;1.23;;;0.40;99.90;;;;;;5071181;28;19967;-90
2023/01/17 08:26:56;;;;;;;3.05;0.98;;;0.40;99.90;;;;;;5071812;28;20053;-89
2023/01/17 08:29:23;;;;;;;2.70;0.95;;;0.80;99.90;;;;;;5072280;28;20048;-90
2023/01/17 08:31:48;;;;;;;;;;;0.40;99.90;;;;;;5072102;28;20550;-90
2023/01/17 08:34:15;;;;;;;2.38;1.00;;;0.40;99.90;;;;;;5038760;28;19973;-89
2023/01/17 08:36:41;;;;;;;5.13;1.45;;;0.40;99.90;;;;;;5071507;28;20052;-88
2023/01/17 08:39:08;;;;;;;11.93;1.58;;;0.40;99.90;;;;;;5071853;28;20049;-87
2023/01/17 08:41:34;;;;;;;4.45;1.33;;;0.40;99.90;;;;;;5071292;28;20124;-87
2023/01/17 08:44:01;;;;;;;6.07;1.42;;;0.40;99.90;;;;;;5071155;28;20060;-86
2023/01/17 08:46:27;;;;;;;3.38;1.13;;;0.60;99.90;;;;;;5054722;28;20052;-83
2023/01/17 08:48:54;;;;;;;;;;;0.50;99.90;;;;;;5071793;28;20114;-83
2023/01/17 08:51:21;;;;;;;2.85;1.45;;;0.60;99.90;;;;;;5071532;28;19920;-82
2023/01/17 08:53:47;;;;;;;1.55;1.00;;;0.60;99.90;;;;;;5071935;28;20238;-83
2023/01/17 08:56:13;;;;;;;8.25;1.55;;;0.70;99.90;;;;;;5071498;28;20049;-86
2023/01/17 08:58:40;;;;;;;5.28;1.45;;;0.80;99.90;;;;;;5038314;28;20408;-87
2023/01/17 09:01:06;;;;;;;2.70;1.15;;;1.20;99.90;;;;;;5070385;28;20400;-86
2023/01/17 09:03:33;;;;;;;2.45;0.98;;;1.20;99.90;;;;;;5053819;28;20076;-88
2023/01/17 09:06:14;;;;;;;4.30;1.40;;;0.90;99.90;;;;;;5053325;28;20051;-88
2023/01/17 09:08:40;;;;;;;7.22;1.67;;;1.00;99.90;;;;;;5069582;28;20114;-89
2023/01/17 09:11:07;;;;;;;;;;;1.30;99.90;;;;;;5054243;28;20070;-88
2023/01/17 09:13:33;;;;;;;2.65;1.40;;;1.80;99.90;;;;;;5070592;28;20367;-88
2023/01/17 09:15:59;;;;;;;;;;;1.60;99.90;;;;;;5054197;28;20135;-88
2023/01/17 09:18:26;;;;;;;2.97;1.58;;;1.10;99.90;;;;;;5070608;28;19980;-88
2023/01/17 09:20:53;;;;;;;3.05;1.38;;;1.10;99.90;;;;;;5053811;28;20398;-90
2023/01/17 09:23:23;;;;;;;4.57;1.52;;;1.20;99.90;;;;;;5053494;28;20036;-88
2023/01/17 09:25:54;;;;;;;5.50;1.63;;;1.40;99.90;;;;;;5070156;28;20516;-91
2023/01/17 09:28:20;;;;;;;3.40;1.55;;;2.20;99.90;;;;;;5070697;28;20558;-88
2023/01/17 09:30:45;;;;;;;;;;;1.80;99.90;;;;;;5071182;28;20040;-89
2023/01/17 09:33:11;;;;;;;3.05;1.45;;;1.30;99.90;;;;;;5071050;28;20320;-82
2023/01/17 09:35:37;;;;;;;2.40;1.42;;;1.40;99.90;;;;;;5070742;28;20053;-89
2023/01/17 09:38:02;;;;;;;3.95;1.50;;;1.40;99.90;;;;;;5070571;28;20044;-87
2023/01/17 09:40:28;;;;;;;3.92;1.73;;;1.40;99.90;;;;;;5070858;28;20079;-89
2023/01/17 09:43:02;;;;;;;4.10;2.13;;;1.50;99.90;;;;;;5070783;28;20094;-91
2023/01/17 09:45:32;;;;;;;12.10;2.20;;;1.60;99.90;;;;;;5070384;28;20044;-88
2023/01/17 09:48:01;;;;;;;5.28;1.85;;;1.60;99.90;;;;;;5069742;28;20607;-88
2023/01/17 09:50:31;;;;;;;4.68;2.00;;;1.50;99.90;;;;;;5054183;28;20052;-90
2023/01/17 09:53:11;;;;;;;5.97;1.95;;;1.50;99.90;;;;;;5070166;28;20060;-88
2023/01/17 09:55:47;;;;;;;8.20;1.73;;;1.60;99.90;;;;;;5070156;28;20064;-81
2023/01/17 09:58:34;;;;;;;8.85;1.98;;;2.10;99.90;;;;;;5070739;28;20084;-83
2023/01/17 10:01:39;;;;;;;4.32;1.52;;;1.80;99.90;;;;;;5069873;28;20181;-87
2023/01/17 10:04:35;;;;;;;6.45;1.60;;;1.70;99.90;;;;;;5070164;28;20063;-86
2023/01/17 10:07:17;;;;;;;4.45;2.10;;;1.70;99.90;;;;;;5070035;28;20076;-87
2023/01/17 10:09:52;;;;;;;2.88;1.45;;;2.20;99.90;;;;;;5069938;28;20059;-87
2023/01/17 10:12:35;;;;;;;4.10;1.75;;;1.80;99.90;;;;;;5070721;28;20098;-87
2023/01/17 10:15:10;;;;;;;6.20;2.05;;;1.90;99.90;;;;;;5070397;28;20047;-86
2023/01/17 10:17:57;;;;;;;5.57;1.35;;;1.90;99.90;;;;;;5070613;28;20053;-87
2023/01/17 10:20:51;;;;;;;5.50;2.05;;;2.00;99.90;;;;;;5070580;28;20078;-87
2023/01/17 10:23:49;;;;;;;5.40;2.10;;;2.10;99.90;;;;;;5070349;28;20071;-89
2023/01/17 10:26:26;;;;;;;18.23;2.45;;;2.20;99.90;;;;;;5069683;28;20096;-87
2023/01/17 10:28:57;;;;;;;7.78;2.15;;;2.30;99.90;;;;;;5070003;28;20137;-87
2023/01/17 10:31:25;;;;;;;8.75;2.10;;;2.40;99.90;;;;;;5070205;28;20053;-88
2023/01/17 10:34:02;;;;;;;12.38;2.60;;;2.40;99.90;;;;;;5070085;28;20063;-88
2023/01/17 10:36:39;;;;;;;4.38;1.70;;;2.40;99.90;;;;;;5053434;28;20143;-87
2023/01/17 10:39:22;;;;;;;5.20;1.70;;;2.40;99.90;;;;;;5069705;28;20267;-87
2023/01/17 10:42:02;;;;;;;5.88;1.95;;;2.50;99.90;;;;;;5070005;28;20052;-88
2023/01/17 10:44:37;;;;;;;7.22;1.70;;;2.70;99.90;;;;;;5070500;28;20146;-88
2023/01/17 10:47:18;;;;;;;5.57;2.00;;;2.90;99.90;;;;;;5069982;28;20044;-87
2023/01/17 10:49:47;;;;;;;4.55;1.55;;;3.10;99.90;;;;;;5069612;28;20072;-85
2023/01/17 10:52:31;;;;;;;4.38;2.17;;;3.40;99.90;;;;;;5070948;28;20048;-85
2023/01/17 10:55:18;;;;;;;7.97;1.65;;;3.40;99.90;;;;;;5069232;28;20060;-86
2023/01/17 10:57:47;;;;;;;6.13;1.58;;;3.60;99.90;;;;;;5069993;28;20182;-88
2023/01/17 11:00:38;;;;;;;4.80;1.83;;;3.80;99.90;;;;;;5070215;28;20494;-84
2023/01/17 11:03:05;;;;;;;6.95;1.70;;;4.10;99.90;;;;;;5069376;28;20525;-86
2023/01/17 11:05:33;;;;;;;3.75;1.58;;;4.60;99.90;;;;;;5069410;28;20052;-89
2023/01/17 11:08:04;;;;;;;7.35;1.45;;;5.40;99.90;;;;;;5072155;28;20048;-88
2023/01/17 11:10:52;;;;;;;4.72;1.80;;;6.10;99.90;;;;;;5056489;28;20055;-88
2023/01/17 11:13:24;;;;;;;5.30;1.52;;;6.80;99.90;;;;;;5073161;28;20505;-89
2023/01/17 11:15:56;;;;;;;4.45;1.88;;;7.30;99.90;;;;;;5072778;28;20052;-89
2023/01/17 11:18:28;;;;;;;6.55;1.50;;;7.80;99.90;;;;;;5073358;28;20044;-87
2023/01/17 11:21:19;;;;;;;5.88;2.08;;;8.10;99.90;;;;;;5056339;28;20048;-87
2023/01/17 11:23:48;;;;;;;2.70;1.20;;;8.40;99.90;;;;;;5072330;28;20322;-87
2023/01/17 11:26:46;;;;;;;8.43;1.55;;;8.60;99.90;;;;;;5070855;28;20530;-88
2023/01/17 11:29:28;;;;;;;6.40;1.48;;;8.80;99.90;;;;;;5071320;28;20091;-87
2023/01/17 11:31:55;;;;;;;4.85;1.40;;;9.00;99.90;;;;;;5071961;28;20087;-88
2023/01/17 11:34:30;;;;;;;4.57;1.50;;;9.30;99.90;;;;;;5055561;28;20063;-87
2023/01/17 11:37:16;;;;;;;6.17;1.90;;;9.50;99.90;;;;;;5071677;28;20395;-88
2023/01/17 11:39:41;;;;;;;5.32;1.52;;;9.70;99.90;;;;;;5072072;28;20093;-88
2023/01/17 11:42:33;;;;;;;4.07;1.65;;;9.90;99.90;;;;;;5055048;28;20048;-88
2023/01/17 11:45:26;;;;;;;4.88;1.70;;;10.10;99.90;;;;;;5072464;28;20486;-88
2023/01/17 11:48:07;;;;;;;3.03;1.30;;;10.20;99.90;;;;;;5055577;28;20492;-88
2023/01/17 11:50:34;;;;;;;6.55;2.13;;;10.20;99.90;;;;;;5055859;28;20106;-89
2023/01/17 11:53:19;;;;;;;5.88;1.50;;;10.30;99.90;;;;;;5072057;28;20056;-88
2023/01/17 11:56:00;;;;;;;2.30;1.30;;;10.40;99.90;;;;;;5055768;28;20135;-88
2023/01/17 11:58:27;;;;;;;4.35;1.33;;;10.70;99.90;;;;;;5072239;28;20052;-88
2023/01/17 12:00:59;;;;;;;6.38;1.67;;;11.00;99.90;;;;;;5072006;28;20107;-87
2023/01/17 12:03:28;;;;;;;5.60;1.30;;;11.50;99.90;;;;;;5072356;28;20078;-83
2023/01/17 12:06:00;;;;;;;4.45;1.30;;;11.90;99.90;;;;;;5070610;28;20474;-86
2023/01/17 12:08:53;;;;;;;2.72;1.20;;;12.10;99.90;;;;;;5070844;28;20051;-86
2023/01/17 12:11:30;;;;;;;5.00;1.08;;;12.30;99.90;;;;;;5071845;28;20055;-86
2023/01/17 12:14:12;;;;;;;5.65;1.80;;;12.40;99.90;;;;;;5055590;28;20122;-88
2023/01/17 12:16:55;;;;;;;4.78;1.20;;;12.40;99.90;;;;;;5072205;28;20170;-86
2023/01/17 12:20:04;;;;;;;5.20;1.23;;;12.50;99.90;;;;;;5071935;28;20082;-88
2023/01/17 12:22:49;;;;;;;4.53;1.20;;;12.70;99.90;;;;;;5071050;28;20049;-87
2023/01/17 12:25:56;;;;;;;5.20;1.50;;;13.10;99.90;;;;;;5071177;28;20041;-83
2023/01/17 12:28:28;;;;;;;5.05;1.60;;;13.00;99.90;;;;;;5060540;28;20082;-86
2023/01/17 12:31:05;;;;;;;4.15;1.20;;;12.60;99.90;;;;;;5071660;28;20056;-87
2023/01/17 12:33:50;;;;;;;2.80;1.00;;;12.50;99.90;;;;;;5054717;28;20055;-86
2023/01/17 12:36:18;;;;;;;5.18;1.38;;;12.60;98.00;;;;;;5071371;28;20668;-86
2023/01/17 12:38:47;;;;;;;4.82;1.10;;;12.80;99.90;;;;;;5071545;28;20052;-86
2023/01/17 12:41:47;;;;;;;5.30;1.15;;;12.80;99.90;;;;;;5071100;28;20055;-87
2023/01/17 12:44:17;;;;;;;7.50;1.30;;;12.70;99.90;;;;;;5071077;28;20414;-86
2023/01/17 12:46:49;;;;;;;3.35;1.00;;;12.80;99.90;;;;;;5071500;28;20055;-86
2023/01/17 12:49:33;;;;;;;3.55;1.50;;;13.00;99.90;;;;;;5071249;28;20516;-86
2023/01/17 12:52:09;;;;;;;7.43;1.10;;;13.20;99.90;;;;;;5071115;28;20045;-86
2023/01/17 12:54:40;;;;;;;4.20;1.30;;;13.30;99.90;;;;;;5071075;28;20136;-86
2023/01/17 12:57:13;;;;;;;3.28;1.52;;;13.50;99.90;;;;;;5070836;28;20045;-86
2023/01/17 12:59:52;;;;;;;4.75;2.05;;;13.50;99.90;;;;;;5071374;28;20562;-85
2023/01/17 13:02:36;;;;;;;4.45;1.50;;;13.70;99.90;;;;;;5070889;28;20052;-85
2023/01/17 13:05:29;;;;;;;6.90;1.13;;;13.60;98.50;;;;;;5070581;28;20162;-86
2023/01/17 13:08:21;;;;;;;5.85;2.25;;;13.80;98.60;;;;;;5071094;28;20087;-85
2023/01/17 13:10:58;;;;;;;14.00;1.70;;;14.00;99.90;;;;;;5070661;28;20063;-86
2023/01/17 13:13:29;;;;;;;3.10;1.10;;;14.40;99.90;;;;;;5071266;28;20055;-85
2023/01/17 13:16:24;;;;;;;4.15;1.30;;;14.50;99.90;;;;;;5054274;28;20457;-84
2023/01/17 13:18:51;;;;;;;2.38;1.02;;;14.50;93.60;;;;;;5071131;28;20072;-85
2023/01/17 13:21:25;;;;;;;2.58;1.00;;;14.40;99.90;;;;;;5070473;28;20453;-85
2023/01/17 13:24:04;;;;;;;7.30;1.90;;;14.40;98.70;;;;;;5070680;28;20048;-85
2023/01/17 13:26:45;;;;;;;5.53;1.50;;;14.20;93.20;;;;;;5070850;28;20405;-84
2023/01/17 13:29:26;;;;;;;2.85;1.00;;;14.10;99.90;;;;;;5069707;28;20479;-84
2023/01/17 13:32:13;;;;;;;5.47;1.08;;;14.00;93.70;;;;;;5070566;28;20052;-85
2023/01/17 13:35:10;;;;;;;6.45;1.30;;;14.10;84.10;;;;;;5054278;28;20045;-84
2023/01/17 13:37:48;;;;;;;2.80;1.07;;;14.30;85.50;;;;;;5070517;28;20048;-84
2023/01/17 13:40:43;;;;;;;5.00;1.13;;;14.40;91.70;;;;;;5070152;28;20102;-84
2023/01/17 13:43:17;;;;;;;7.18;1.50;;;14.50;92.20;;;;;;5070497;28;20056;-84
2023/01/17 13:46:01;;;;;;;5.43;1.60;;;14.40;93.90;;;;;;5070523;28;20046;-84
2023/01/17 13:48:30;;;;;;;3.00;1.42;;;14.20;94.20;;;;;;5070798;28;20048;-84
2023/01/17 13:51:06;;;;;;;5.90;1.30;;;13.80;99.90;;;;;;5070697;28;20044;-84
2023/01/17 13:53:38;;;;;;;2.38;1.15;;;13.50;91.70;;;;;;5070474;28;20056;-84
2023/01/17 13:56:18;;;;;;;4.93;1.40;;;13.50;99.90;;;;;;5070221;28;20048;-83
2023/01/17 13:59:05;;;;;;;5.75;1.50;;;13.60;92.80;;;;;;5070963;28;20115;-83
2023/01/17 14:01:41;;;;;;;6.75;1.50;;;13.30;99.90;;;;;;5069819;28;20048;-83
2023/01/17 14:04:08;;;;;;;3.35;1.35;;;12.90;99.90;;;;;;5070314;28;20478;-83
2023/01/17 14:06:43;;;;;;;5.57;1.10;;;12.80;99.90;;;;;;5070207;28;20482;-84
2023/01/17 14:09:22;;;;;;;5.20;1.17;;;12.70;97.50;;;;;;5070984;28;20056;-83
2023/01/17 14:12:08;;;;;;;3.67;1.10;;;13.00;99.90;;;;;;5070632;28;20045;-85
2023/01/17 14:14:35;;;;;;;2.78;1.20;;;13.00;92.90;;;;;;5070423;28;20500;-83
2023/01/17 14:17:22;;;;;;;3.58;1.35;;;13.00;99.90;;;;;;5070426;28;20045;-83
2023/01/17 14:19:49;;;;;;;2.55;1.20;;;13.10;94.70;;;;;;5070581;28;20059;-83
2023/01/17 14:22:25;;;;;;;9.60;1.73;;;13.20;99.90;;;;;;5069988;28;20126;-83
2023/01/17 14:25:04;;;;;;;3.00;1.30;;;13.50;99.90;;;;;;5069995;28;20052;-83
2023/01/17 14:27:35;;;;;;;1.88;0.90;;;13.80;89.00;;;;;;5069711;28;20056;-83
2023/01/17 14:30:15;;;;;;;5.18;1.20;;;13.80;96.30;;;;;;5070564;28;20094;-83
2023/01/17 14:32:41;;;;;;;3.80;1.05;;;13.60;84.30;;;;;;5070334;28;20048;-83
2023/01/17 14:35:21;;;;;;;1.98;0.75;;;13.50;99.90;;;;;;5069241;28;20060;-82
2023/01/17 14:37:52;;;;;;;3.00;1.05;;;13.70;83.00;;;;;;5069987;28;20056;-78
2023/01/17 14:40:25;;;;;;;2.45;0.98;;;13.80;92.80;;;;;;5069442;28;20056;-83
2023/01/17 14:43:09;;;;;;;3.33;1.08;;;13.70;97.50;;;;;;5072842;28;20059;-82
2023/01/17 14:45:35;;;;;;;3.65;1.30;;;13.70;79.20;;;;;;5057122;28;20128;-82